Time;durP1;ratioP1;P1;durP2;ratioP2;P2;SDS_P1;SDS_P2;PMS_P1;PMS_P2;Temp;Humidity;BMP_temperature;BMP_pressure;BME280_temperature;BME280_humidity;BME280_pressure;Samples;Min_cycle;Max_cycle;Signal;HPM_P1;HPM_P2
2021/12/23 00:01:23;;;;;;;0.00;0.00;;;-3.60;59.30;;;;;;4994796;28;20124;-78
2021/12/23 00:03:49;;;;;;;0.00;0.00;;;-3.60;59.50;;;;;;4994372;28;20038;-78
2021/12/23 00:06:17;;;;;;;0.00;0.00;;;-3.50;59.60;;;;;;4994616;28;20549;-78
2021/12/23 00:08:43;;;;;;;0.00;0.00;;;-3.40;59.60;;;;;;4994184;28;20129;-79
2021/12/23 00:11:13;;;;;;;0.00;0.00;;;-3.40;59.30;;;;;;4994422;28;20097;-78
2021/12/23 00:13:48;;;;;;;0.00;0.00;;;-3.40;59.20;;;;;;4994678;28;20417;-77
2021/12/23 00:16:18;;;;;;;0.00;0.00;;;-3.50;59.10;;;;;;4977038;28;20034;-76
2021/12/23 00:18:51;;;;;;;0.00;0.00;;;-3.60;59.20;;;;;;4977462;28;20454;-77
2021/12/23 00:24:01;;;;;;;0.00;0.00;;;-3.50;59.50;;;;;;4994494;28;20036;-77
2021/12/23 00:26:28;;;;;;;0.00;0.00;;;-3.50;59.30;;;;;;4977212;28;20043;-78
2021/12/23 00:28:54;;;;;;;0.00;0.00;;;-3.50;59.40;;;;;;4957883;28;20030;-78
2021/12/23 00:31:20;;;;;;;0.00;0.00;;;-3.50;59.20;;;;;;4974939;28;20023;-76
2021/12/23 00:33:46;;;;;;;0.00;0.00;;;-3.60;59.10;;;;;;4974926;28;20427;-78
2021/12/23 00:36:13;;;;;;;0.00;0.00;;;-3.60;59.20;;;;;;4958054;28;20081;-78
2021/12/23 00:38:48;;;;;;;0.00;0.00;;;-3.60;59.10;;;;;;4973937;28;20027;-78
2021/12/23 00:41:18;;;;;;;0.00;0.00;;;-3.60;59.30;;;;;;4975221;28;20031;-78
2021/12/23 00:43:43;;;;;;;0.00;0.00;;;-3.70;59.00;;;;;;4974967;28;20035;-77
2021/12/23 00:46:09;;;;;;;0.00;0.00;;;-3.80;59.10;;;;;;4974801;28;20026;-77
2021/12/23 00:48:39;;;;;;;0.10;0.10;;;-3.80;59.40;;;;;;4975089;28;20031;-78
2021/12/23 00:51:14;;;;;;;0.00;0.00;;;-3.80;59.60;;;;;;4975277;28;20106;-78
2021/12/23 00:53:40;;;;;;;0.00;0.00;;;-3.70;59.60;;;;;;4974787;28;20394;-77
2021/12/23 00:56:10;;;;;;;0.00;0.00;;;-3.70;59.50;;;;;;4959804;28;20038;-76
2021/12/23 00:58:36;;;;;;;0.00;0.00;;;-3.80;59.20;;;;;;4961507;28;20041;-78
2021/12/23 01:01:03;;;;;;;0.10;0.10;;;-3.80;59.50;;;;;;4978595;28;20161;-78
2021/12/23 01:03:29;;;;;;;0.00;0.00;;;-3.80;59.60;;;;;;4978378;28;20359;-77
2021/12/23 01:05:56;;;;;;;0.00;0.00;;;-3.70;59.50;;;;;;4978627;28;20031;-78
2021/12/23 01:08:22;;;;;;;0.00;0.00;;;-3.70;59.50;;;;;;4978253;28;20034;-78
2021/12/23 01:10:52;;;;;;;0.00;0.00;;;-3.70;59.50;;;;;;4978404;28;20027;-78
2021/12/23 01:13:25;;;;;;;0.00;0.00;;;-3.70;59.40;;;;;;4960942;28;20042;-78
2021/12/23 01:16:03;;;;;;;0.00;0.00;;;-3.70;59.30;;;;;;4978595;28;20426;-78
2021/12/23 01:18:38;;;;;;;0.00;0.00;;;-3.70;59.90;;;;;;4978008;28;20031;-78
2021/12/23 01:21:16;;;;;;;0.00;0.00;;;-3.70;59.30;;;;;;4978469;28;20374;-78
2021/12/23 01:23:49;;;;;;;0.00;0.00;;;-3.70;59.40;;;;;;4977825;28;20030;-77
2021/12/23 01:26:21;;;;;;;0.00;0.00;;;-3.80;59.40;;;;;;4977895;28;20047;-78
2021/12/23 01:28:50;;;;;;;0.00;0.00;;;-3.80;59.40;;;;;;4977993;28;20035;-78
2021/12/23 01:31:16;;;;;;;0.00;0.00;;;-3.80;59.50;;;;;;4960398;28;20459;-76
2021/12/23 01:33:45;;;;;;;0.00;0.00;;;-3.80;59.60;;;;;;4977737;28;20089;-78
2021/12/23 01:36:11;;;;;;;0.13;0.00;;;-3.70;59.30;;;;;;4988922;28;20081;-79
2021/12/23 01:38:37;;;;;;;0.00;0.00;;;-3.80;59.20;;;;;;4979333;28;20057;-78
2021/12/23 01:41:03;;;;;;;0.00;0.00;;;-3.80;59.50;;;;;;4979886;28;20030;-79
2021/12/23 01:43:29;;;;;;;0.00;0.00;;;-3.80;59.50;;;;;;4997222;28;20034;-79
2021/12/23 01:45:55;;;;;;;0.00;0.00;;;-3.80;59.40;;;;;;4997525;28;20379;-78
2021/12/23 01:48:21;;;;;;;0.00;0.00;;;-3.80;59.30;;;;;;4997250;28;20145;-77
2021/12/23 01:50:48;;;;;;;0.05;0.05;;;-3.80;59.40;;;;;;4996733;28;20054;-77
2021/12/23 01:53:14;;;;;;;0.00;0.00;;;-3.80;59.30;;;;;;4996864;28;20109;-77
2021/12/23 01:55:42;;;;;;;0.00;0.00;;;-3.80;59.40;;;;;;4996679;28;20038;-77
2021/12/23 01:58:10;;;;;;;0.00;0.00;;;-3.90;59.00;;;;;;4996710;28;20110;-80
2021/12/23 02:00:39;;;;;;;0.00;0.00;;;-4.00;59.10;;;;;;4996835;28;20114;-78
2021/12/23 02:03:05;;;;;;;0.00;0.00;;;-4.00;59.30;;;;;;4996544;28;20109;-77
2021/12/23 02:05:32;;;;;;;0.00;0.00;;;-4.00;59.30;;;;;;4996311;28;20030;-79
2021/12/23 02:07:59;;;;;;;0.00;0.00;;;-4.10;59.30;;;;;;4996692;28;20026;-79
2021/12/23 02:10:28;;;;;;;0.00;0.00;;;-4.10;59.20;;;;;;4978784;28;20385;-78
2021/12/23 02:12:55;;;;;;;0.00;0.00;;;-4.10;59.00;;;;;;4996701;28;20034;-77
2021/12/23 02:15:21;;;;;;;0.00;0.00;;;-4.20;59.10;;;;;;4996252;28;20501;-77
2021/12/23 02:17:48;;;;;;;0.00;0.00;;;-4.10;59.30;;;;;;4996277;28;20030;-78
2021/12/23 02:20:18;;;;;;;0.00;0.00;;;-4.10;59.20;;;;;;4996449;28;20053;-78
2021/12/23 02:22:44;;;;;;;0.00;0.00;;;-4.10;59.10;;;;;;4979046;28;20474;-77
2021/12/23 02:25:12;;;;;;;0.00;0.00;;;-4.00;59.20;;;;;;4979067;28;20078;-78
2021/12/23 02:27:39;;;;;;;0.20;0.00;;;-3.90;59.10;;;;;;4996126;28;20019;-77
2021/12/23 02:30:08;;;;;;;0.00;0.00;;;-3.90;58.70;;;;;;4996645;28;20033;-82
2021/12/23 02:32:38;;;;;;;0.00;0.00;;;-3.80;58.40;;;;;;4995981;28;20030;-78
2021/12/23 02:35:11;;;;;;;0.00;0.00;;;-3.80;58.10;;;;;;4995938;28;20374;-77
2021/12/23 02:37:37;;;;;;;0.00;0.00;;;-3.90;57.80;;;;;;4978828;28;20033;-76
2021/12/23 02:40:04;;;;;;;0.00;0.00;;;-3.90;57.70;;;;;;4979027;28;20109;-78
2021/12/23 02:42:29;;;;;;;0.00;0.00;;;-3.90;57.60;;;;;;4995708;28;20058;-76
2021/12/23 02:44:55;;;;;;;0.00;0.00;;;-3.90;57.40;;;;;;4995664;28;20068;-78
2021/12/23 02:47:21;;;;;;;0.00;0.00;;;-3.90;57.40;;;;;;4996385;28;20023;-78
2021/12/23 02:49:47;;;;;;;0.00;0.00;;;-3.90;57.20;;;;;;4995884;28;20023;-78
2021/12/23 02:52:12;;;;;;;0.00;0.00;;;-4.00;56.90;;;;;;4994537;28;20045;-78
2021/12/23 02:54:38;;;;;;;0.00;0.00;;;-4.00;57.00;;;;;;4978466;28;20118;-78
2021/12/23 02:57:07;;;;;;;0.00;0.00;;;-4.00;57.10;;;;;;4978394;28;20034;-77
2021/12/23 02:59:32;;;;;;;0.00;0.00;;;-3.90;57.70;;;;;;4995475;28;20057;-77
2021/12/23 03:02:00;;;;;;;0.00;0.00;;;-3.90;57.00;;;;;;4978207;28;20027;-78
2021/12/23 03:04:26;;;;;;;0.00;0.00;;;-3.90;56.80;;;;;;4996031;28;20118;-78
2021/12/23 03:06:56;;;;;;;0.00;0.00;;;-3.90;56.80;;;;;;4996181;28;20453;-78
2021/12/23 03:09:21;;;;;;;0.00;0.00;;;-3.90;56.90;;;;;;4978090;28;20489;-77
2021/12/23 03:11:47;;;;;;;0.00;0.00;;;-3.90;56.70;;;;;;4978077;28;20027;-78
2021/12/23 03:14:15;;;;;;;0.00;0.00;;;-4.00;56.80;;;;;;4994939;28;20168;-79
2021/12/23 03:16:46;;;;;;;0.00;0.00;;;-4.00;56.70;;;;;;4995769;28;20053;-78
2021/12/23 03:19:14;;;;;;;0.00;0.00;;;-4.10;56.50;;;;;;4994698;28;20543;-78
2021/12/23 03:21:44;;;;;;;0.00;0.00;;;-4.20;56.70;;;;;;4995641;28;20031;-78
2021/12/23 03:24:15;;;;;;;0.00;0.00;;;-4.20;56.90;;;;;;4994967;28;20022;-80
2021/12/23 03:26:41;;;;;;;0.00;0.00;;;-4.30;57.20;;;;;;4995434;28;20477;-77
2021/12/23 03:29:11;;;;;;;0.00;0.00;;;-4.20;57.30;;;;;;4994799;28;20038;-77
2021/12/23 03:31:39;;;;;;;0.00;0.00;;;-4.20;57.20;;;;;;4978001;28;20041;-77
2021/12/23 03:34:05;;;;;;;0.00;0.00;;;-4.20;57.30;;;;;;4995011;28;20065;-78
2021/12/23 03:36:32;;;;;;;0.00;0.00;;;-4.30;57.30;;;;;;4994858;28;20444;-78
2021/12/23 03:39:01;;;;;;;0.00;0.00;;;-4.30;57.40;;;;;;4995052;28;20034;-78
2021/12/23 03:41:30;;;;;;;0.00;0.00;;;-4.30;57.40;;;;;;4994617;28;20034;-79
2021/12/23 03:43:56;;;;;;;0.00;0.00;;;-4.20;57.50;;;;;;4994768;28;20401;-78
2021/12/23 03:46:24;;;;;;;0.00;0.00;;;-4.30;57.50;;;;;;4994873;28;20034;-78
2021/12/23 03:48:50;;;;;;;0.00;0.00;;;-4.30;57.60;;;;;;4977319;28;20161;-78
2021/12/23 03:51:15;;;;;;;0.00;0.00;;;-4.30;57.70;;;;;;4995133;28;20084;-76
2021/12/23 03:53:41;;;;;;;0.00;0.00;;;-4.20;58.00;;;;;;4995386;28;20121;-78
2021/12/23 03:56:07;;;;;;;0.00;0.00;;;-4.20;57.90;;;;;;4994909;28;20109;-79
2021/12/23 03:58:34;;;;;;;0.00;0.00;;;-4.20;57.80;;;;;;4994773;28;20034;-77
2021/12/23 04:01:00;;;;;;;0.00;0.00;;;-4.20;57.70;;;;;;4993769;28;20154;-78
2021/12/23 04:03:26;;;;;;;0.00;0.00;;;-4.20;57.70;;;;;;4994949;28;20378;-77
2021/12/23 04:05:54;;;;;;;0.00;0.00;;;-4.30;57.70;;;;;;4993709;28;20113;-79
2021/12/23 04:08:22;;;;;;;0.00;0.00;;;-4.40;57.80;;;;;;4994976;28;20034;-79
2021/12/23 04:10:51;;;;;;;0.00;0.00;;;-4.50;58.00;;;;;;4993220;28;20355;-78
2021/12/23 04:13:16;;;;;;;0.00;0.00;;;-4.50;58.20;;;;;;4976770;28;20035;-78
2021/12/23 04:15:45;;;;;;;0.00;0.00;;;-4.60;58.30;;;;;;4994152;28;20027;-78
2021/12/23 04:18:11;;;;;;;0.00;0.00;;;-4.60;58.40;;;;;;4994567;28;20026;-79
2021/12/23 04:20:53;;;;;;;0.00;0.00;;;-4.60;58.50;;;;;;4977825;28;20037;-78
2021/12/23 04:23:24;;;;;;;0.00;0.00;;;-4.60;58.70;;;;;;4994821;28;20030;-78
2021/12/23 04:25:50;;;;;;;0.22;0.00;;;-4.60;58.70;;;;;;4994564;28;20441;-78
2021/12/23 04:28:16;;;;;;;0.00;0.00;;;-4.60;58.70;;;;;;4994415;28;20026;-79
2021/12/23 04:30:43;;;;;;;0.00;0.00;;;-4.60;58.90;;;;;;4997566;28;20023;-79
2021/12/23 04:33:09;;;;;;;0.05;0.05;;;-4.60;58.90;;;;;;4999222;28;20026;-78
2021/12/23 04:35:35;;;;;;;0.00;0.00;;;-4.60;58.80;;;;;;4998069;28;20066;-78
2021/12/23 04:38:02;;;;;;;0.00;0.00;;;-4.70;58.90;;;;;;4997929;28;20517;-79
2021/12/23 04:40:30;;;;;;;0.00;0.00;;;-4.70;59.20;;;;;;4997845;28;20113;-79
2021/12/23 04:42:56;;;;;;;0.00;0.00;;;-4.60;59.20;;;;;;4997963;28;20073;-81
2021/12/23 04:45:22;;;;;;;0.00;0.00;;;-4.60;59.10;;;;;;4998454;28;20032;-79
2021/12/23 04:47:50;;;;;;;0.00;0.00;;;-4.60;59.10;;;;;;4998211;28;20022;-79
2021/12/23 04:50:18;;;;;;;0.00;0.00;;;-4.70;59.20;;;;;;4997381;28;20030;-79
2021/12/23 04:52:45;;;;;;;0.00;0.00;;;-4.70;59.30;;;;;;4997291;28;20088;-80
2021/12/23 04:55:14;;;;;;;0.00;0.00;;;-4.60;59.40;;;;;;4997691;28;20091;-79
2021/12/23 04:57:40;;;;;;;0.00;0.00;;;-4.60;59.40;;;;;;4980276;28;20462;-78
2021/12/23 05:00:11;;;;;;;0.00;0.00;;;-4.60;60.10;;;;;;4980055;28;20109;-79
2021/12/23 05:02:40;;;;;;;0.00;0.00;;;-4.60;59.70;;;;;;4997615;28;20432;-79
2021/12/23 05:05:09;;;;;;;0.00;0.00;;;-4.50;59.80;;;;;;4981137;28;20473;-79
2021/12/23 05:07:38;;;;;;;0.00;0.00;;;-4.50;59.60;;;;;;4998371;28;20161;-79
2021/12/23 05:10:06;;;;;;;0.00;0.00;;;-4.40;59.50;;;;;;4997866;28;20085;-79
2021/12/23 05:12:35;;;;;;;0.00;0.00;;;-4.40;59.40;;;;;;4980353;28;20022;-77
2021/12/23 05:15:01;;;;;;;0.00;0.00;;;-4.40;59.60;;;;;;4996349;28;20482;-77
2021/12/23 05:17:26;;;;;;;0.00;0.00;;;-4.30;59.70;;;;;;4997535;28;20038;-79
2021/12/23 05:19:52;;;;;;;0.00;0.00;;;-4.30;59.80;;;;;;4997435;28;20022;-79
2021/12/23 05:22:18;;;;;;;0.00;0.00;;;-4.20;59.60;;;;;;4997155;28;20438;-79
2021/12/23 05:24:43;;;;;;;0.00;0.00;;;-4.20;59.60;;;;;;4997018;28;20022;-77
2021/12/23 05:27:09;;;;;;;0.00;0.00;;;-4.20;59.50;;;;;;4997900;28;20050;-79
2021/12/23 05:29:35;;;;;;;0.00;0.00;;;-4.20;59.50;;;;;;4996002;28;20042;-79
2021/12/23 05:32:01;;;;;;;0.03;0.03;;;-4.20;59.60;;;;;;4997091;28;20468;-80
2021/12/23 05:34:26;;;;;;;0.00;0.00;;;-4.20;59.80;;;;;;4996485;28;20122;-79
2021/12/23 05:36:52;;;;;;;0.20;0.10;;;-4.20;59.60;;;;;;4996673;28;20513;-79
2021/12/23 05:39:18;;;;;;;0.00;0.00;;;-4.30;59.50;;;;;;4979992;28;20033;-77
2021/12/23 05:41:44;;;;;;;0.00;0.00;;;-4.30;59.60;;;;;;4978678;28;20027;-78
2021/12/23 05:44:09;;;;;;;0.00;0.00;;;-4.40;59.60;;;;;;4996678;28;20513;-79
2021/12/23 05:46:35;;;;;;;0.00;0.00;;;-4.40;59.60;;;;;;4996248;28;20428;-78
2021/12/23 05:49:01;;;;;;;0.00;0.00;;;-4.40;59.80;;;;;;4996624;28;20034;-78
2021/12/23 05:51:26;;;;;;;0.10;0.00;;;-4.40;59.90;;;;;;4996661;28;20034;-78
2021/12/23 05:53:52;;;;;;;0.00;0.00;;;-4.40;60.20;;;;;;4996861;28;20042;-77
2021/12/23 05:56:18;;;;;;;0.00;0.00;;;-4.40;60.00;;;;;;4979789;28;20109;-82
2021/12/23 05:58:43;;;;;;;0.00;0.00;;;-4.30;60.10;;;;;;4996153;28;20033;-78
2021/12/23 06:01:09;;;;;;;0.10;0.10;;;-4.30;60.00;;;;;;4996494;28;20027;-78
2021/12/23 06:03:35;;;;;;;0.00;0.00;;;-4.20;60.10;;;;;;4996284;28;20036;-78
2021/12/23 06:06:01;;;;;;;0.00;0.00;;;-4.30;59.80;;;;;;4996281;28;20026;-79
2021/12/23 06:08:26;;;;;;;0.00;0.00;;;-4.30;60.00;;;;;;4996435;28;20034;-79
2021/12/23 06:10:52;;;;;;;0.00;0.00;;;-4.30;60.00;;;;;;4995856;28;20467;-79
2021/12/23 06:13:20;;;;;;;0.00;0.00;;;-4.30;60.10;;;;;;4978589;28;20443;-80
2021/12/23 06:15:46;;;;;;;0.08;0.08;;;-4.30;60.10;;;;;;4995509;28;20022;-77
2021/12/23 06:18:12;;;;;;;0.00;0.00;;;-4.20;60.00;;;;;;4996032;28;20037;-79
2021/12/23 06:20:37;;;;;;;0.00;0.00;;;-4.20;60.00;;;;;;4996074;28;20125;-79
2021/12/23 06:23:04;;;;;;;0.00;0.00;;;-4.30;60.10;;;;;;4996341;28;20415;-79
2021/12/23 06:25:30;;;;;;;0.00;0.00;;;-4.20;60.10;;;;;;4994238;28;20046;-78
2021/12/23 06:27:56;;;;;;;0.00;0.00;;;-4.20;60.00;;;;;;4996066;28;20033;-80
2021/12/23 06:30:24;;;;;;;0.00;0.00;;;-4.20;60.10;;;;;;4995803;28;20034;-79
2021/12/23 06:32:52;;;;;;;0.00;0.00;;;-4.20;60.20;;;;;;4995613;28;20030;-79
2021/12/23 06:35:20;;;;;;;0.00;0.00;;;-4.20;60.00;;;;;;4995720;28;20068;-79
2021/12/23 06:37:46;;;;;;;0.00;0.00;;;-4.20;60.00;;;;;;4994792;28;20023;-79
2021/12/23 06:40:13;;;;;;;0.08;0.08;;;-4.20;60.20;;;;;;4995287;28;20041;-78
2021/12/23 06:42:38;;;;;;;0.00;0.00;;;-4.10;60.30;;;;;;4995312;28;20113;-80
2021/12/23 06:45:06;;;;;;;0.00;0.00;;;-4.10;60.10;;;;;;4995695;28;20105;-79
2021/12/23 06:47:33;;;;;;;0.05;0.00;;;-4.00;60.00;;;;;;4994154;28;20462;-79
2021/12/23 06:49:59;;;;;;;0.00;0.00;;;-4.00;59.90;;;;;;4995331;28;20057;-79
2021/12/23 06:52:30;;;;;;;0.00;0.00;;;-4.00;59.90;;;;;;4993349;28;20426;-80
2021/12/23 06:54:56;;;;;;;0.00;0.00;;;-4.00;60.00;;;;;;4994797;28;20026;-79
2021/12/23 06:57:23;;;;;;;0.00;0.00;;;-4.00;60.00;;;;;;4993923;28;20470;-81
2021/12/23 06:59:49;;;;;;;0.10;0.05;;;-3.90;60.20;;;;;;4993978;28;20053;-78
2021/12/23 07:02:15;;;;;;;0.00;0.00;;;-3.80;60.20;;;;;;4994994;28;20027;-80
2021/12/23 07:04:43;;;;;;;0.00;0.00;;;-3.70;60.30;;;;;;4994734;28;20031;-79
2021/12/23 07:07:19;;;;;;;0.00;0.00;;;-3.70;60.30;;;;;;4993982;28;20060;-80
2021/12/23 07:09:45;;;;;;;0.00;0.00;;;-3.50;60.30;;;;;;5010194;28;20026;-79
2021/12/23 07:12:14;;;;;;;0.00;0.00;;;-3.40;60.20;;;;;;4995108;28;20057;-82
2021/12/23 07:14:46;;;;;;;0.00;0.00;;;-3.30;60.20;;;;;;4994487;28;20034;-77
2021/12/23 07:17:14;;;;;;;0.00;0.00;;;-3.20;59.90;;;;;;4993158;28;20027;-76
2021/12/23 07:19:39;;;;;;;0.00;0.00;;;-3.10;59.60;;;;;;5009724;28;20023;-77
2021/12/23 07:22:05;;;;;;;0.00;0.00;;;-3.10;59.40;;;;;;4992207;28;20431;-82
2021/12/23 07:24:37;;;;;;;0.00;0.00;;;-3.20;59.00;;;;;;4991195;28;20023;-80
2021/12/23 07:27:03;;;;;;;0.00;0.00;;;-3.30;59.20;;;;;;4986699;28;20097;-78
2021/12/23 07:35:18;;;;;;;0.00;0.00;;;-3.20;59.40;;;;;;4994320;28;20042;-79
2021/12/23 07:37:44;;;;;;;0.00;0.00;;;-3.20;59.40;;;;;;4994039;28;20038;-78
2021/12/23 07:40:16;;;;;;;0.00;0.00;;;-3.10;59.50;;;;;;4989225;28;20473;-80
2021/12/23 07:42:53;;;;;;;0.00;0.00;;;-3.00;59.60;;;;;;4991137;28;20030;-79
2021/12/23 07:45:26;;;;;;;0.00;0.00;;;-2.80;59.30;;;;;;4994283;28;20081;-81
2021/12/23 07:47:52;;;;;;;0.00;0.00;;;-2.60;59.50;;;;;;4977080;28;20081;-81
2021/12/23 07:50:18;;;;;;;0.00;0.00;;;-2.50;59.10;;;;;;4994151;28;20418;-80
2021/12/23 07:52:44;;;;;;;0.00;0.00;;;-2.30;59.20;;;;;;4993874;28;20081;-81
2021/12/23 07:55:10;;;;;;;0.00;0.00;;;-2.20;58.70;;;;;;4989786;28;20043;-81
2021/12/23 07:57:39;;;;;;;0.00;0.00;;;-2.10;58.00;;;;;;4974839;28;20066;-80
2021/12/23 08:00:06;;;;;;;0.00;0.00;;;-2.10;57.90;;;;;;4989722;28;20390;-80
2021/12/23 08:02:31;;;;;;;0.00;0.00;;;-2.10;57.70;;;;;;4980948;28;20026;-80
2021/12/23 08:04:57;;;;;;;0.00;0.00;;;-2.00;58.10;;;;;;4976664;28;20038;-81
2021/12/23 08:07:23;;;;;;;0.00;0.00;;;-1.90;57.90;;;;;;4961243;28;20084;-81
2021/12/23 08:09:49;;;;;;;0.00;0.00;;;-1.80;57.50;;;;;;4976925;28;20428;-80
2021/12/23 08:12:15;;;;;;;0.00;0.00;;;-1.80;57.50;;;;;;4994518;28;20510;-81
2021/12/23 08:14:42;;;;;;;0.00;0.00;;;-1.60;57.70;;;;;;4992511;28;20121;-80
2021/12/23 08:17:07;;;;;;;0.00;0.00;;;-1.40;57.50;;;;;;4994809;28;20027;-79
2021/12/23 08:19:33;;;;;;;0.00;0.00;;;-1.20;57.40;;;;;;4976308;28;20046;-79
2021/12/23 08:22:00;;;;;;;0.00;0.00;;;-1.20;56.70;;;;;;4993720;28;20026;-80
2021/12/23 08:24:29;;;;;;;0.10;0.00;;;-1.20;56.80;;;;;;4993618;28;20026;-83
2021/12/23 08:26:55;;;;;;;0.00;0.00;;;-1.10;56.80;;;;;;4993813;28;20136;-79
2021/12/23 08:29:24;;;;;;;0.00;0.00;;;-1.00;56.70;;;;;;4993202;28;20077;-80
2021/12/23 08:31:53;;;;;;;0.00;0.00;;;-0.90;56.60;;;;;;4994158;28;20018;-80
2021/12/23 08:34:23;;;;;;;0.00;0.00;;;-0.90;56.10;;;;;;4993383;28;20045;-81
2021/12/23 08:36:50;;;;;;;0.00;0.00;;;-0.90;56.10;;;;;;4992708;28;20061;-80
2021/12/23 08:39:17;;;;;;;0.00;0.00;;;-0.30;57.70;;;;;;4992986;28;20050;-81
2021/12/23 08:41:46;;;;;;;0.00;0.00;;;0.70;57.70;;;;;;4992370;28;20029;-81
2021/12/23 08:44:12;;;;;;;0.00;0.00;;;2.00;57.40;;;;;;4992205;28;20532;-80
2021/12/23 08:46:38;;;;;;;0.00;0.00;;;3.30;56.20;;;;;;4991771;28;20106;-80
2021/12/23 08:49:05;;;;;;;0.00;0.00;;;4.40;54.70;;;;;;4978115;28;20050;-79
2021/12/23 08:51:33;;;;;;;0.00;0.00;;;5.30;52.80;;;;;;4982544;28;20050;-80
2021/12/23 08:54:02;;;;;;;0.00;0.00;;;6.10;51.30;;;;;;4991497;28;20031;-80
2021/12/23 08:56:28;;;;;;;0.00;0.00;;;7.00;50.50;;;;;;4991845;28;20496;-80
2021/12/23 08:58:54;;;;;;;0.00;0.00;;;7.80;49.70;;;;;;4959972;28;20030;-80
2021/12/23 09:01:20;;;;;;;0.00;0.00;;;8.20;47.40;;;;;;4993404;28;20486;-79
2021/12/23 09:04:21;;;;;;;0.00;0.00;;;8.30;46.00;;;;;;4978437;28;20042;-79
2021/12/23 09:06:47;;;;;;;0.00;0.00;;;7.60;43.70;;;;;;4992969;28;20042;-80
2021/12/23 09:09:13;;;;;;;0.00;0.00;;;6.80;43.80;;;;;;4976058;28;20117;-80
2021/12/23 09:11:41;;;;;;;0.00;0.00;;;6.10;44.90;;;;;;4992914;28;20034;-79
2021/12/23 09:14:07;;;;;;;0.00;0.00;;;6.20;44.70;;;;;;4993034;28;20113;-79
2021/12/23 09:16:35;;;;;;;0.00;0.00;;;5.60;43.90;;;;;;4994548;28;20034;-80
2021/12/23 09:19:02;;;;;;;0.00;0.00;;;4.80;43.50;;;;;;4996029;28;20026;-80
2021/12/23 09:21:28;;;;;;;0.08;0.00;;;4.00;44.00;;;;;;4995328;28;20069;-83
2021/12/23 09:23:53;;;;;;;0.00;0.00;;;3.70;44.90;;;;;;4995105;28;20406;-80
2021/12/23 09:26:20;;;;;;;0.00;0.00;;;3.70;45.60;;;;;;4985782;28;20055;-81
2021/12/23 09:34:13;;;;;;;0.00;0.00;;;8.20;46.40;;;;;;4995878;28;20097;-82
2021/12/23 09:36:40;;;;;;;0.00;0.00;;;9.30;44.70;;;;;;4994709;28;20025;-82
2021/12/23 09:39:10;;;;;;;0.00;0.00;;;9.40;42.80;;;;;;4995731;28;20379;-80
2021/12/23 09:41:47;;;;;;;0.00;0.00;;;9.00;41.40;;;;;;4996237;28;20022;-80
2021/12/23 09:44:14;;;;;;;0.00;0.00;;;8.30;40.70;;;;;;4979192;28;20478;-80
2021/12/23 09:46:41;;;;;;;0.00;0.00;;;7.60;40.70;;;;;;4996420;28;20054;-79
2021/12/23 09:49:07;;;;;;;0.00;0.00;;;6.90;40.80;;;;;;4996152;28;20055;-80
2021/12/23 09:51:35;;;;;;;0.00;0.00;;;6.40;40.90;;;;;;4995731;28;20030;-81
2021/12/23 09:54:08;;;;;;;0.00;0.00;;;6.90;41.90;;;;;;4996086;28;20102;-81
2021/12/23 09:56:35;;;;;;;0.00;0.00;;;8.00;41.50;;;;;;4995275;28;20030;-80
2021/12/23 09:59:02;;;;;;;0.00;0.00;;;9.10;40.90;;;;;;4975453;28;20046;-81
2021/12/23 10:01:30;;;;;;;0.00;0.00;;;9.50;39.40;;;;;;4976813;28;20035;-82
2021/12/23 10:03:56;;;;;;;0.00;0.00;;;9.80;39.00;;;;;;4990086;28;20462;-80
2021/12/23 10:06:25;;;;;;;0.00;0.00;;;10.20;38.60;;;;;;4985624;28;20049;-80
2021/12/23 10:08:52;;;;;;;0.00;0.00;;;11.00;38.10;;;;;;4993452;28;20035;-81
2021/12/23 10:11:50;;;;;;;0.00;0.00;;;11.80;37.40;;;;;;4995459;28;20026;-81
2021/12/23 10:31:26;;;;;;;0.00;0.00;;;14.20;33.40;;;;;;4994678;28;20036;-81
2021/12/23 10:39:50;;;;;;;0.00;0.00;;;14.80;31.10;;;;;;4994446;28;20532;-80
2021/12/23 10:42:18;;;;;;;0.00;0.00;;;15.10;31.20;;;;;;4974844;28;20165;-81
2021/12/23 10:44:49;;;;;;;0.00;0.00;;;15.40;31.00;;;;;;4975592;28;20033;-80
2021/12/23 10:47:40;;;;;;;0.00;0.00;;;15.70;30.10;;;;;;4991018;28;20084;-80
2021/12/23 10:59:23;;;;;;;0.00;0.00;;;15.60;28.90;;;;;;4994470;28;20069;-79
2021/12/23 11:02:20;;;;;;;0.00;0.00;;;15.70;29.20;;;;;;4994772;28;20030;-78
2021/12/23 11:05:23;;;;;;;0.00;0.00;;;15.90;28.80;;;;;;4993502;28;20037;-80
2021/12/23 11:08:01;;;;;;;0.00;0.00;;;15.90;28.50;;;;;;4991425;28;20542;-81
2021/12/23 11:36:02;;;;;;;0.00;0.00;;;16.50;27.30;;;;;;4993795;28;20049;-80
2021/12/23 11:43:52;;;;;;;0.00;0.00;;;16.20;27.50;;;;;;4993485;28;20045;-80
2021/12/23 11:46:46;;;;;;;0.00;0.00;;;15.90;27.30;;;;;;4993418;28;20088;-80
2021/12/23 11:49:13;;;;;;;0.00;0.00;;;15.70;27.40;;;;;;4986524;28;20113;-80
2021/12/23 11:54:29;;;;;;;0.00;0.00;;;15.40;27.40;;;;;;4993986;28;20092;-79
2021/12/23 11:57:18;;;;;;;0.00;0.00;;;15.10;27.30;;;;;;4992878;28;20382;-82
2021/12/23 12:00:14;;;;;;;0.00;0.00;;;14.80;27.50;;;;;;4979472;28;20041;-80
2021/12/23 12:02:41;;;;;;;0.00;0.00;;;14.70;27.50;;;;;;4994309;28;20431;-83
2021/12/23 12:05:17;;;;;;;0.00;0.00;;;14.50;27.70;;;;;;4978470;28;20027;-80
2021/12/23 12:07:45;;;;;;;0.00;0.00;;;14.40;27.60;;;;;;4974816;28;20041;-81
2021/12/23 12:10:18;;;;;;;0.00;0.00;;;14.20;27.50;;;;;;4974638;28;20391;-81
2021/12/23 12:13:00;;;;;;;0.00;0.00;;;14.00;27.40;;;;;;4974562;28;20030;-79
2021/12/23 12:15:47;;;;;;;0.00;0.00;;;13.70;27.50;;;;;;4974288;28;20034;-78
2021/12/23 12:18:19;;;;;;;0.00;0.00;;;13.30;27.50;;;;;;4973216;28;20558;-79
2021/12/23 12:20:49;;;;;;;0.00;0.00;;;13.10;27.80;;;;;;4974395;28;20034;-80
2021/12/23 12:23:22;;;;;;;0.00;0.00;;;12.90;27.90;;;;;;4988583;28;20080;-79
2021/12/23 12:25:49;;;;;;;0.00;0.00;;;12.80;28.00;;;;;;4993623;28;20082;-79
2021/12/23 12:28:20;;;;;;;0.00;0.00;;;12.60;28.00;;;;;;4993490;28;20026;-80
2021/12/23 12:30:50;;;;;;;0.00;0.00;;;12.50;28.20;;;;;;4993503;28;20026;-79
2021/12/23 12:33:19;;;;;;;0.00;0.00;;;12.30;28.30;;;;;;4993568;28;20027;-80
2021/12/23 12:36:10;;;;;;;0.00;0.00;;;12.20;28.20;;;;;;4991110;28;20080;-83
2021/12/23 12:38:38;;;;;;;0.00;0.00;;;11.90;28.30;;;;;;4992893;28;20432;-81
2021/12/23 12:41:24;;;;;;;0.00;0.00;;;11.70;28.60;;;;;;4993127;28;20041;-80
2021/12/23 12:43:59;;;;;;;0.00;0.00;;;11.40;28.60;;;;;;4989003;28;20142;-81
2021/12/23 12:46:37;;;;;;;0.00;0.00;;;11.30;29.00;;;;;;4990759;28;20027;-81
2021/12/23 12:49:23;;;;;;;0.00;0.00;;;11.20;28.80;;;;;;4983184;28;20541;-82
2021/12/23 12:51:51;;;;;;;0.00;0.00;;;11.10;28.80;;;;;;4992925;28;20030;-80
2021/12/23 12:54:33;;;;;;;0.00;0.00;;;10.90;28.80;;;;;;4995812;28;20381;-79
2021/12/23 12:57:03;;;;;;;0.00;0.00;;;10.50;28.80;;;;;;5007051;28;20058;-80
2021/12/23 12:59:40;;;;;;;0.00;0.00;;;10.20;29.00;;;;;;4995038;28;20073;-82
2021/12/23 13:02:24;;;;;;;0.00;0.00;;;9.80;29.00;;;;;;4995332;28;20110;-79
2021/12/23 13:05:03;;;;;;;0.00;0.00;;;9.40;29.10;;;;;;4997386;28;20102;-81
2021/12/23 13:07:35;;;;;;;0.00;0.00;;;9.10;29.30;;;;;;4998145;28;20032;-79
2021/12/23 13:10:07;;;;;;;0.00;0.00;;;8.50;29.40;;;;;;4981689;28;20394;-81
2021/12/23 13:12:35;;;;;;;0.00;0.00;;;8.10;29.70;;;;;;4981460;28;20022;-84
2021/12/23 13:15:19;;;;;;;0.00;0.00;;;7.60;29.90;;;;;;4997052;28;20065;-81
2021/12/23 13:17:49;;;;;;;0.00;0.00;;;7.20;29.90;;;;;;4995784;28;20030;-80
2021/12/23 13:21:05;;;;;;;0.00;0.00;;;6.80;30.00;;;;;;4997071;28;20105;-80
2021/12/23 13:23:40;;;;;;;0.00;0.00;;;6.30;30.30;;;;;;4993177;28;20034;-86
2021/12/23 13:26:16;;;;;;;0.00;0.00;;;6.00;30.60;;;;;;4994165;28;20050;-81
2021/12/23 13:28:47;;;;;;;0.00;0.00;;;5.60;30.90;;;;;;4997220;28;20030;-80
2021/12/23 13:31:18;;;;;;;0.00;0.00;;;5.20;31.30;;;;;;4996877;28;20070;-81
2021/12/23 13:34:07;;;;;;;0.00;0.00;;;4.80;31.50;;;;;;4984401;28;20034;-83
2021/12/23 13:37:06;;;;;;;0.00;0.00;;;4.30;32.10;;;;;;4996680;28;20030;-80
2021/12/23 13:39:38;;;;;;;0.00;0.00;;;3.80;32.30;;;;;;4977032;28;20409;-80
2021/12/23 13:42:07;;;;;;;0.00;0.00;;;3.30;32.50;;;;;;4997004;28;20037;-80
2021/12/23 13:44:36;;;;;;;0.00;0.00;;;2.90;32.90;;;;;;4996776;28;20038;-85
2021/12/23 13:47:02;;;;;;;0.00;0.00;;;2.40;33.60;;;;;;4992443;28;20041;-80
2021/12/23 13:49:50;;;;;;;0.00;0.00;;;1.90;34.10;;;;;;4994190;28;20109;-81
2021/12/23 13:52:28;;;;;;;0.00;0.00;;;1.30;34.40;;;;;;4988270;28;20030;-81
2021/12/23 13:55:22;;;;;;;0.00;0.00;;;0.70;34.60;;;;;;4992568;28;20076;-80
2021/12/23 13:57:53;;;;;;;0.00;0.00;;;0.00;35.30;;;;;;4996272;28;20029;-81
2021/12/23 14:00:29;;;;;;;0.00;0.00;;;-0.70;35.80;;;;;;4995921;28;20474;-81
2021/12/23 14:03:08;;;;;;;0.00;0.00;;;-1.30;36.60;;;;;;4995806;28;20023;-80
2021/12/23 14:05:40;;;;;;;0.00;0.00;;;-1.80;37.20;;;;;;4996168;28;20398;-81
2021/12/23 14:08:09;;;;;;;0.10;0.10;;;-2.30;37.40;;;;;;4996531;28;20378;-81
2021/12/23 14:10:39;;;;;;;0.00;0.00;;;-2.60;38.00;;;;;;4995391;28;20121;-81
2021/12/23 14:13:16;;;;;;;0.00;0.00;;;-2.90;38.50;;;;;;4978615;28;20033;-79
2021/12/23 14:15:44;;;;;;;0.08;0.08;;;-3.20;38.90;;;;;;4996016;28;20395;-80
2021/12/23 14:23:24;;;;;;;0.10;0.10;;;-3.80;39.80;;;;;;4995994;28;20034;-80
2021/12/23 14:26:04;;;;;;;0.10;0.10;;;-4.00;40.10;;;;;;4974469;28;20515;-79